createdAt,value
2023-02-12T00:05:34.056Z,98690.13
2023-02-12T00:15:36.618Z,98687.44
2023-02-12T00:36:35.150Z,98686.75
2023-02-12T00:57:05.534Z,98693.16
2023-02-12T01:53:35.826Z,98681.13
2023-02-12T02:03:51.725Z,98682.06
2023-02-12T02:14:10.426Z,98687.38
2023-02-12T02:36:57.993Z,98668.75
2023-02-12T02:42:07.941Z,98672.09
2023-02-12T02:47:14.014Z,98667.38
2023-02-12T02:52:14.239Z,98657.41
2023-02-12T02:57:28.250Z,98656.09
2023-02-12T03:02:33.032Z,98664.31
2023-02-12T03:07:33.116Z,98659.16
2023-02-12T03:12:44.722Z,98647.53
2023-02-12T03:17:46.680Z,98648.44
2023-02-12T03:22:48.817Z,98648.88
2023-02-12T03:28:04.133Z,98637.84
2023-02-12T03:33:25.158Z,98637.47
2023-02-12T03:38:47.855Z,98641.09
2023-02-12T03:44:21.336Z,98643.72
2023-02-12T03:49:34.525Z,98648.78
2023-02-12T03:54:27.227Z,98657.22
2023-02-12T03:59:22.148Z,98661.44
2023-02-12T04:04:14.460Z,98671.41
2023-02-12T04:09:11.598Z,98674.31
2023-02-12T04:14:26.987Z,98673.06
2023-02-12T04:19:34.665Z,98672.22
2023-02-12T04:25:24.920Z,98677.50
2023-02-12T04:30:35.258Z,98685.00
2023-02-12T04:35:54.482Z,98688.72
2023-02-12T04:40:48.531Z,98692.63
2023-02-12T04:45:40.393Z,98700.66
2023-02-12T04:50:41.396Z,98693.16
2023-02-12T04:55:33.107Z,98698.91
2023-02-12T05:00:25.402Z,98684.81
2023-02-12T05:05:17.537Z,98692.31
2023-02-12T05:10:10.035Z,98688.53
2023-02-12T05:15:03.744Z,98695.81
2023-02-12T05:19:55.500Z,98687.78
2023-02-12T05:24:47.390Z,98691.06
2023-02-12T05:29:39.230Z,98688.72
2023-02-12T05:34:31.296Z,98680.78
2023-02-12T05:39:23.136Z,98678.72
2023-02-12T05:44:15.234Z,98679.88
2023-02-12T05:49:08.838Z,98680.09
2023-02-12T05:54:03.967Z,98677.72
2023-02-12T05:59:13.373Z,98674.09
2023-02-12T06:04:13.270Z,98668.66
2023-02-12T06:09:05.117Z,98666.28
2023-02-12T06:13:56.966Z,98672.75
2023-02-12T06:18:50.633Z,98674.81
2023-02-12T06:23:42.855Z,98674.00
2023-02-12T06:28:36.671Z,98671.19
2023-02-12T06:33:28.675Z,98679.44
2023-02-12T06:38:20.776Z,98670.56
2023-02-12T06:43:12.782Z,98669.03
2023-02-12T06:53:12.499Z,98674.59
2023-02-12T06:58:05.411Z,98678.53
2023-02-12T07:02:58.611Z,98688.41
2023-02-12T07:07:50.934Z,98688.28
2023-02-12T07:12:43.080Z,98693.72
2023-02-12T07:17:35.442Z,98676.81
2023-02-12T07:22:27.226Z,98682.78
2023-02-12T07:27:18.979Z,98682.53
2023-02-12T07:32:11.681Z,98682.34
2023-02-12T07:37:04.179Z,98680.81
2023-02-12T07:41:57.865Z,98682.06
2023-02-12T07:46:50.075Z,98691.47
2023-02-12T07:51:43.074Z,98686.03
2023-02-12T07:56:38.536Z,98684.19
2023-02-12T08:01:39.522Z,98688.56
2023-02-12T08:06:35.676Z,98694.00
2023-02-12T08:11:29.507Z,98683.06
2023-02-12T08:16:26.724Z,98678.28
2023-02-12T08:21:22.956Z,98673.81
2023-02-12T08:26:23.242Z,98674.97
2023-02-12T08:31:20.146Z,98680.81
2023-02-12T08:36:15.910Z,98679.34
2023-02-12T08:41:15.039Z,98678.97
2023-02-12T08:46:23.962Z,98675.47
2023-02-12T08:51:23.702Z,98672.81
2023-02-12T08:56:18.401Z,98670.09
2023-02-12T09:01:17.445Z,98666.25
2023-02-12T09:06:10.554Z,98659.50
2023-02-12T09:16:25.086Z,98653.16
2023-02-12T09:21:20.166Z,98655.56
2023-02-12T09:26:22.520Z,98646.84
2023-02-12T09:31:27.997Z,98645.91
2023-02-12T09:36:21.143Z,98642.25
2023-02-12T09:41:46.841Z,98638.78
2023-02-12T09:47:15.833Z,98630.00
2023-02-12T09:52:17.798Z,98629.97
2023-02-12T09:57:23.609Z,98631.59
2023-02-12T10:02:18.993Z,98624.03
2023-02-12T10:08:00.123Z,98617.81
2023-02-12T10:13:06.328Z,98623.47
2023-02-12T10:18:21.465Z,98626.13
2023-02-12T10:23:59.552Z,98621.88
2023-02-12T10:28:52.644Z,98616.34
2023-02-12T10:33:51.155Z,98615.19
2023-02-12T10:38:53.331Z,98606.63
2023-02-12T10:43:45.139Z,98602.63
2023-02-12T10:48:41.929Z,98597.63
2023-02-12T10:58:57.843Z,98584.81
2023-02-12T11:03:49.897Z,98581.50
2023-02-12T11:08:42.286Z,98576.97
2023-02-12T11:13:35.736Z,98566.94
2023-02-12T11:18:34.881Z,98568.47
2023-02-12T11:23:33.956Z,98552.78
2023-02-12T11:28:26.507Z,98546.78
2023-02-12T11:33:30.937Z,98536.34
2023-02-12T11:38:28.613Z,98540.78
2023-02-12T11:43:21.072Z,98532.31
2023-02-12T11:48:28.714Z,98531.00
2023-02-12T11:53:28.513Z,98517.28
2023-02-12T11:58:26.442Z,98519.72
2023-02-12T12:03:35.484Z,98515.47
2023-02-12T12:08:51.183Z,98502.59
2023-02-12T12:13:54.600Z,98506.47
2023-02-12T12:19:18.349Z,98499.91
2023-02-12T12:25:16.555Z,98514.13
2023-02-12T12:30:41.584Z,98506.78
2023-02-12T12:36:11.175Z,98508.53
2023-02-12T12:41:32.056Z,98492.84
2023-02-12T12:46:44.668Z,98476.50
2023-02-12T12:52:02.550Z,98476.75
2023-02-12T12:57:18.785Z,98478.03
2023-02-12T13:02:34.538Z,98461.09
2023-02-12T13:08:08.750Z,98456.38
2023-02-12T13:13:24.158Z,98450.19
2023-02-12T13:18:27.558Z,98449.38
2023-02-12T13:24:02.031Z,98447.88
2023-02-12T13:29:02.391Z,98443.13
2023-02-12T13:34:00.968Z,98439.19
2023-02-12T13:38:58.337Z,98433.19
2023-02-12T13:44:09.364Z,98426.91
2023-02-12T13:49:55.831Z,98426.47
2023-02-12T13:55:40.157Z,98423.03
2023-02-12T14:00:52.110Z,98427.28
2023-02-12T14:05:44.183Z,98423.13
2023-02-12T14:10:41.573Z,98424.19
2023-02-12T14:15:39.683Z,98426.66
2023-02-12T14:20:37.015Z,98432.75
2023-02-12T14:25:44.619Z,98432.03
2023-02-12T14:30:40.367Z,98432.47
2023-02-12T14:35:42.034Z,98425.03
2023-02-12T14:40:38.346Z,98428.81
2023-02-12T14:45:39.010Z,98421.53
2023-02-12T14:50:42.005Z,98417.03
2023-02-12T15:00:49.796Z,98417.72
2023-02-12T15:05:50.713Z,98423.25
2023-02-12T15:16:55.939Z,98427.41
2023-02-12T15:21:48.840Z,98422.16
2023-02-12T15:26:50.481Z,98429.81
2023-02-12T15:31:42.951Z,98423.19
2023-02-12T15:36:37.332Z,98424.28
2023-02-12T15:41:41.989Z,98428.66
2023-02-12T15:46:35.136Z,98427.44
2023-02-12T15:51:41.628Z,98438.78
2023-02-12T15:56:37.050Z,98424.81
2023-02-12T16:01:33.350Z,98433.22
2023-02-12T16:06:30.836Z,98427.03
2023-02-12T16:11:27.759Z,98430.13
2023-02-12T16:21:30.594Z,98436.25
2023-02-12T16:26:28.054Z,98436.13
2023-02-12T16:31:33.829Z,98430.78
2023-02-12T16:36:31.286Z,98444.19
2023-02-12T16:41:35.248Z,98441.72
2023-02-12T16:46:41.487Z,98448.91
2023-02-12T16:56:44.286Z,98465.28
2023-02-12T17:11:57.645Z,98472.22
2023-02-12T17:32:12.360Z,98472.97
2023-02-12T17:42:16.041Z,98479.41
2023-02-12T17:47:09.670Z,98489.34
2023-02-12T17:52:07.267Z,98498.38
2023-02-12T18:02:05.650Z,98503.41
2023-02-12T18:12:06.066Z,98500.81
2023-02-12T18:22:08.058Z,98499.13
2023-02-12T18:27:01.756Z,98503.75
2023-02-12T18:31:55.612Z,98496.28
2023-02-12T18:36:47.599Z,98491.47
2023-02-12T18:41:41.966Z,98495.34
2023-02-12T19:07:03.294Z,98486.91
2023-02-12T19:11:58.395Z,98484.16
2023-02-12T19:27:04.345Z,98485.09
2023-02-12T19:31:58.353Z,98485.38
2023-02-12T19:36:54.665Z,98483.34
2023-02-12T19:46:54.495Z,98479.03
2023-02-12T20:02:04.387Z,98479.34
2023-02-12T20:12:04.545Z,98473.66
2023-02-12T20:22:06.396Z,98467.09
2023-02-12T20:37:17.722Z,98481.41
2023-02-12T20:42:10.369Z,98497.50
2023-02-12T20:47:03.931Z,98492.97
2023-02-12T20:51:56.916Z,98502.81
2023-02-12T20:56:51.498Z,98497.59
2023-02-12T21:01:44.237Z,98498.72
2023-02-12T21:06:41.267Z,98508.25
2023-02-12T21:11:35.104Z,98512.13
2023-02-12T21:21:45.559Z,98505.47
2023-02-12T21:26:37.694Z,98508.47
2023-02-12T21:36:47.121Z,98507.06
2023-02-12T21:41:41.871Z,98507.44
2023-02-12T21:46:36.400Z,98513.69
2023-02-12T21:51:32.988Z,98515.81
2023-02-12T21:56:26.736Z,98508.16
2023-02-12T22:01:23.242Z,98526.84
2023-02-12T22:06:19.581Z,98519.97
2023-02-12T22:11:13.371Z,98525.53
2023-02-12T22:16:13.961Z,98526.59
2023-02-12T22:21:11.287Z,98533.34
2023-02-12T22:26:13.882Z,98526.59
2023-02-12T22:31:09.381Z,98534.59
2023-02-12T22:36:07.929Z,98534.59
2023-02-12T22:41:00.103Z,98541.34
2023-02-12T22:45:52.268Z,98556.34
2023-02-12T22:50:44.146Z,98556.91
2023-02-12T22:55:37.025Z,98560.06
2023-02-12T23:00:28.839Z,98560.56
2023-02-12T23:05:20.938Z,98552.81
2023-02-12T23:10:13.428Z,98561.53
2023-02-12T23:15:05.772Z,98553.31
2023-02-12T23:19:57.865Z,98562.59
2023-02-12T23:24:51.011Z,98561.03
2023-02-12T23:29:42.860Z,98560.78
2023-02-12T23:34:34.880Z,98570.81
2023-02-12T23:39:26.614Z,98571.28
2023-02-12T23:44:18.382Z,98569.34
2023-02-12T23:49:10.633Z,98571.22
2023-02-12T23:54:02.882Z,98570.56
2023-02-12T23:58:58.079Z,98560.06
